Time;durP1;ratioP1;P1;durP2;ratioP2;P2;SDS_P1;SDS_P2;PMS_P1;PMS_P2;Temp;Humidity;BMP_temperature;BMP_pressure;BME280_temperature;BME280_humidity;BME280_pressure;Samples;Min_cycle;Max_cycle;Signal;HPM_P1;HPM_P2
2021/10/05 00:00:00;;;;;;;2.40;2.20;;;12.50;99.90;;;;;;5026917;28;20746;-38
2021/10/05 00:02:26;;;;;;;3.57;2.13;;;12.60;99.90;;;;;;5027467;28;21062;-38
2021/10/05 00:04:52;;;;;;;2.43;2.23;;;12.40;99.90;;;;;;5027783;28;20297;-38
2021/10/05 00:07:18;;;;;;;3.17;2.10;;;12.50;99.90;;;;;;5027911;28;20924;-38
2021/10/05 00:09:44;;;;;;;2.17;1.97;;;12.40;99.90;;;;;;5013809;28;20199;-38
2021/10/05 00:12:10;;;;;;;2.70;2.20;;;12.40;99.90;;;;;;5028146;28;20425;-41
2021/10/05 00:14:35;;;;;;;2.90;1.83;;;12.40;99.90;;;;;;5027261;28;20208;-38
2021/10/05 00:17:01;;;;;;;2.00;1.87;;;12.50;99.90;;;;;;5026617;28;20369;-38
2021/10/05 00:19:27;;;;;;;2.50;1.90;;;12.50;99.90;;;;;;5027752;28;20534;-38
2021/10/05 00:21:52;;;;;;;1.83;1.73;;;12.50;99.90;;;;;;5034219;28;20521;-38
2021/10/05 00:24:18;;;;;;;2.30;2.10;;;12.40;99.90;;;;;;5020594;28;20222;-38
2021/10/05 00:26:45;;;;;;;2.93;2.20;;;12.50;99.90;;;;;;5027468;28;20185;-39
2021/10/05 00:29:11;;;;;;;2.50;2.10;;;12.50;99.90;;;;;;5027619;28;20454;-38
2021/10/05 00:31:36;;;;;;;3.67;2.50;;;12.50;99.90;;;;;;5027341;28;20505;-38
2021/10/05 00:34:02;;;;;;;1.87;1.77;;;12.50;99.90;;;;;;5027177;28;20198;-38
2021/10/05 00:36:28;;;;;;;2.60;2.03;;;12.70;99.90;;;;;;5027632;28;20780;-38
2021/10/05 00:38:53;;;;;;;2.37;2.17;;;12.60;99.90;;;;;;5021536;28;20187;-38
2021/10/05 00:41:19;;;;;;;2.30;1.90;;;12.60;99.90;;;;;;5026354;28;20226;-37
2021/10/05 00:43:45;;;;;;;2.13;1.70;;;12.50;99.90;;;;;;5026932;28;20187;-38
2021/10/05 00:46:10;;;;;;;2.60;2.00;;;12.60;99.90;;;;;;5025899;28;20270;-38
2021/10/05 00:48:36;;;;;;;2.80;1.90;;;12.60;99.90;;;;;;5027561;28;20533;-38
2021/10/05 00:51:02;;;;;;;2.40;2.20;;;12.60;99.90;;;;;;5027391;28;20620;-38
2021/10/05 00:53:27;;;;;;;2.50;2.10;;;12.50;99.90;;;;;;5021243;28;20288;-37
2021/10/05 00:55:54;;;;;;;2.07;1.80;;;12.60;99.90;;;;;;5022696;28;20522;-38
2021/10/05 00:58:20;;;;;;;2.07;1.87;;;12.50;99.90;;;;;;5027444;28;20569;-37
2021/10/05 01:00:46;;;;;;;2.30;2.03;;;12.50;99.90;;;;;;5026664;28;20460;-39
2021/10/05 01:03:12;;;;;;;2.20;2.00;;;12.50;99.90;;;;;;5026746;28;20186;-38
2021/10/05 01:05:37;;;;;;;5.13;2.73;;;12.40;99.90;;;;;;5025886;28;20182;-38
2021/10/05 01:08:04;;;;;;;4.77;2.07;;;12.50;99.90;;;;;;5024775;28;20194;-37
2021/10/05 01:10:31;;;;;;;4.03;2.37;;;12.40;99.90;;;;;;5018894;28;20282;-38
2021/10/05 01:12:56;;;;;;;1.90;1.80;;;12.40;99.90;;;;;;5026061;28;20444;-38
2021/10/05 01:15:27;;;;;;;2.50;2.30;;;12.40;99.90;;;;;;5026436;28;20425;-38
2021/10/05 01:17:53;;;;;;;1.90;1.70;;;12.50;99.90;;;;;;5026766;28;20182;-38
2021/10/05 01:20:20;;;;;;;1.70;1.60;;;12.40;99.90;;;;;;5032659;28;20452;-38
2021/10/05 01:22:45;;;;;;;2.63;2.10;;;12.40;99.90;;;;;;5046186;28;20903;-38
2021/10/05 01:25:14;;;;;;;7.07;2.23;;;12.40;99.90;;;;;;5017192;28;20436;-38
2021/10/05 01:27:45;;;;;;;2.10;1.90;;;12.40;99.90;;;;;;5026044;28;20256;-37
2021/10/05 01:30:12;;;;;;;2.23;2.03;;;12.40;99.90;;;;;;5014204;28;20417;-38
2021/10/05 01:32:37;;;;;;;2.63;2.43;;;12.40;99.90;;;;;;5026086;28;20428;-38
2021/10/05 01:35:05;;;;;;;1.83;1.73;;;12.40;99.90;;;;;;5026245;28;20878;-38
2021/10/05 01:37:30;;;;;;;3.17;2.00;;;12.50;99.90;;;;;;5026514;28;20195;-38
2021/10/05 01:39:56;;;;;;;3.40;1.83;;;12.40;99.90;;;;;;5017686;28;21032;-38
2021/10/05 01:42:22;;;;;;;2.40;2.20;;;12.50;99.90;;;;;;5025916;28;20209;-37
2021/10/05 01:44:48;;;;;;;3.27;1.67;;;12.50;99.90;;;;;;5025979;28;20256;-38
2021/10/05 01:47:14;;;;;;;3.90;2.03;;;12.50;99.90;;;;;;5025860;28;20567;-38
2021/10/05 01:49:39;;;;;;;1.90;1.80;;;12.40;99.90;;;;;;5026432;28;20462;-38
2021/10/05 01:52:06;;;;;;;2.30;2.00;;;12.40;99.90;;;;;;5026315;28;20586;-37
2021/10/05 01:54:33;;;;;;;2.40;1.60;;;12.50;99.90;;;;;;5020836;28;20202;-38
2021/10/05 01:56:58;;;;;;;2.10;2.00;;;12.40;99.90;;;;;;5025845;28;20520;-38
2021/10/05 01:59:24;;;;;;;3.50;1.80;;;12.40;99.90;;;;;;5025657;28;20504;-38
2021/10/05 02:01:50;;;;;;;2.03;1.90;;;12.40;99.90;;;;;;5026353;28;20222;-38
2021/10/05 02:04:15;;;;;;;2.23;1.73;;;12.40;99.90;;;;;;5024156;28;20277;-38
2021/10/05 02:06:41;;;;;;;4.20;2.20;;;12.40;99.90;;;;;;5025903;28;20182;-38
2021/10/05 02:09:09;;;;;;;2.70;2.40;;;12.40;99.90;;;;;;5018399;28;20549;-38
2021/10/05 02:11:35;;;;;;;2.40;2.20;;;12.40;99.90;;;;;;5020481;28;20585;-37
2021/10/05 02:14:00;;;;;;;2.73;2.20;;;12.30;99.90;;;;;;5025705;28;20443;-38
2021/10/05 02:16:26;;;;;;;2.63;2.00;;;12.40;99.90;;;;;;5025633;28;20437;-38
2021/10/05 02:18:52;;;;;;;3.33;2.20;;;12.40;99.90;;;;;;5025911;28;20187;-39
2021/10/05 02:21:18;;;;;;;4.03;2.20;;;12.40;99.90;;;;;;5039576;28;20255;-38
2021/10/05 02:26:30;;;;;;;3.93;2.67;;;12.40;99.90;;;;;;5024332;28;20429;-38
2021/10/05 02:28:56;;;;;;;2.50;1.90;;;12.30;99.90;;;;;;5025747;28;20436;-37
2021/10/05 02:31:22;;;;;;;2.40;2.07;;;12.30;99.90;;;;;;5026010;28;20421;-40
2021/10/05 02:33:48;;;;;;;2.60;2.17;;;12.30;99.90;;;;;;5025329;28;20309;-38
2021/10/05 02:36:14;;;;;;;2.40;2.07;;;12.30;99.90;;;;;;5025936;28;20424;-38
2021/10/05 02:38:39;;;;;;;2.80;2.43;;;12.30;99.90;;;;;;5022660;28;20781;-41
2021/10/05 02:41:05;;;;;;;2.57;2.30;;;12.30;99.90;;;;;;5019859;28;20667;-41
2021/10/05 02:43:31;;;;;;;2.50;2.30;;;12.30;99.90;;;;;;5029132;28;20621;-38
2021/10/05 02:45:57;;;;;;;3.30;2.50;;;12.30;99.90;;;;;;5029010;28;20649;-38
2021/10/05 02:48:22;;;;;;;2.03;1.83;;;12.30;99.90;;;;;;5029241;28;20429;-40
2021/10/05 02:50:48;;;;;;;2.27;2.07;;;12.30;99.90;;;;;;5029285;28;20198;-40
2021/10/05 02:53:14;;;;;;;3.10;2.00;;;12.40;99.90;;;;;;5028611;28;20186;-41
2021/10/05 02:55:40;;;;;;;4.20;2.10;;;12.40;99.90;;;;;;5017910;28;20220;-41
2021/10/05 02:58:07;;;;;;;1.93;1.80;;;12.30;99.90;;;;;;5029240;28;20222;-40
2021/10/05 03:00:33;;;;;;;2.47;2.23;;;12.40;99.90;;;;;;5029725;28;20469;-40
2021/10/05 03:02:59;;;;;;;2.20;2.00;;;12.30;99.90;;;;;;5028583;28;20435;-40
2021/10/05 03:05:25;;;;;;;2.20;2.00;;;12.30;99.90;;;;;;5029240;28;21031;-38
2021/10/05 03:07:50;;;;;;;2.67;2.30;;;12.30;99.90;;;;;;5029177;28;20649;-40
2021/10/05 03:10:16;;;;;;;2.00;1.63;;;12.30;99.90;;;;;;5020967;28;20208;-40
2021/10/05 03:12:42;;;;;;;1.77;1.67;;;12.30;99.90;;;;;;5029132;28;20214;-40
2021/10/05 03:15:08;;;;;;;2.20;1.90;;;12.20;99.90;;;;;;5028925;28;20817;-40
2021/10/05 03:17:33;;;;;;;2.67;2.33;;;12.30;99.90;;;;;;5028869;28;20260;-39
2021/10/05 03:19:59;;;;;;;2.30;2.10;;;12.20;99.90;;;;;;5031246;28;21109;-40
2021/10/05 03:22:25;;;;;;;4.10;2.17;;;12.30;99.90;;;;;;5029033;28;20529;-39
2021/10/05 03:24:50;;;;;;;1.50;1.40;;;12.20;99.90;;;;;;5021823;28;20195;-38
2021/10/05 03:27:16;;;;;;;2.03;1.87;;;12.30;99.90;;;;;;5025968;28;20190;-38
2021/10/05 03:29:42;;;;;;;2.10;1.80;;;12.30;99.90;;;;;;5028694;28;20573;-40
2021/10/05 03:32:08;;;;;;;3.20;2.10;;;12.30;99.90;;;;;;5028918;28;20183;-38
2021/10/05 03:34:33;;;;;;;1.87;1.73;;;12.30;99.90;;;;;;5028014;28;20190;-38
2021/10/05 03:36:59;;;;;;;2.93;2.63;;;12.30;99.90;;;;;;5028326;28;20478;-39
2021/10/05 03:39:25;;;;;;;2.40;2.20;;;12.30;99.90;;;;;;5027010;28;20219;-40
2021/10/05 03:41:51;;;;;;;2.10;2.00;;;12.30;99.90;;;;;;5022907;28;20277;-40
2021/10/05 03:44:17;;;;;;;2.47;2.10;;;12.30;99.90;;;;;;5028044;28;20881;-41
2021/10/05 03:46:42;;;;;;;2.57;2.37;;;12.30;99.90;;;;;;5027042;28;20285;-40
2021/10/05 03:49:08;;;;;;;2.83;2.30;;;12.30;99.90;;;;;;5028948;28;20668;-40
2021/10/05 03:51:34;;;;;;;2.57;2.37;;;12.30;99.90;;;;;;5028337;28;20255;-40
2021/10/05 03:54:00;;;;;;;2.77;2.40;;;12.30;99.90;;;;;;5027873;28;20448;-40
2021/10/05 03:56:25;;;;;;;2.60;2.40;;;12.30;99.90;;;;;;5018102;28;20978;-40
2021/10/05 03:58:51;;;;;;;2.13;1.93;;;12.30;99.90;;;;;;5028344;28;20748;-45
2021/10/05 04:01:17;;;;;;;2.30;2.10;;;12.30;99.90;;;;;;5028181;28;20311;-39
2021/10/05 04:03:42;;;;;;;3.50;2.20;;;12.30;99.90;;;;;;5027410;28;20237;-39
2021/10/05 04:06:11;;;;;;;2.97;2.67;;;12.30;99.90;;;;;;5027976;28;20696;-41
2021/10/05 04:08:37;;;;;;;2.50;2.30;;;12.30;99.90;;;;;;5028143;28;20273;-40
2021/10/05 04:11:05;;;;;;;2.70;2.10;;;12.30;99.90;;;;;;5015861;28;20542;-40
2021/10/05 04:13:31;;;;;;;2.63;2.43;;;12.30;99.90;;;;;;5026431;28;20198;-40
2021/10/05 04:15:57;;;;;;;2.13;1.93;;;12.30;99.90;;;;;;5028352;28;20769;-40
2021/10/05 04:18:22;;;;;;;2.87;2.67;;;12.40;99.90;;;;;;5027678;28;20201;-40
2021/10/05 04:20:48;;;;;;;2.73;2.53;;;12.20;99.90;;;;;;5009721;28;20548;-39
2021/10/05 04:23:14;;;;;;;3.67;3.30;;;12.20;99.90;;;;;;5044364;28;20202;-39
2021/10/05 04:25:39;;;;;;;2.90;2.60;;;12.20;99.90;;;;;;5025694;28;20278;-40
2021/10/05 04:28:05;;;;;;;3.00;2.80;;;12.10;99.90;;;;;;5024815;28;20662;-41
2021/10/05 04:30:31;;;;;;;2.93;2.63;;;12.20;99.90;;;;;;5027749;28;20202;-42
2021/10/05 04:32:57;;;;;;;3.63;3.33;;;12.10;99.90;;;;;;5026974;28;20198;-40
2021/10/05 04:35:22;;;;;;;3.20;2.90;;;12.10;99.90;;;;;;5027471;28;20796;-39
2021/10/05 04:37:48;;;;;;;3.70;3.40;;;12.10;99.90;;;;;;5027651;28;20190;-40
2021/10/05 04:40:14;;;;;;;3.50;3.20;;;12.10;99.90;;;;;;5020396;28;20222;-40
2021/10/05 04:42:40;;;;;;;3.77;3.20;;;12.20;99.90;;;;;;5025543;28;20183;-40
2021/10/05 04:45:07;;;;;;;3.90;3.10;;;12.10;99.90;;;;;;5026853;28;20452;-40
2021/10/05 04:47:35;;;;;;;3.67;3.37;;;12.20;99.90;;;;;;5024607;28;20715;-39
2021/10/05 04:50:03;;;;;;;5.53;3.17;;;12.10;99.90;;;;;;5026650;28;20987;-39
2021/10/05 04:52:28;;;;;;;3.90;3.47;;;12.20;99.90;;;;;;5027610;28;20813;-39
2021/10/05 04:54:54;;;;;;;3.57;3.27;;;12.10;99.90;;;;;;5022685;28;20453;-39
2021/10/05 04:57:20;;;;;;;3.77;3.30;;;12.20;99.90;;;;;;5019213;28;20213;-39
2021/10/05 04:59:46;;;;;;;4.40;3.53;;;12.20;99.90;;;;;;5027127;28;20193;-39
2021/10/05 05:02:12;;;;;;;3.70;3.40;;;12.10;99.90;;;;;;5027145;28;20198;-40
2021/10/05 05:04:37;;;;;;;3.80;3.50;;;12.10;99.90;;;;;;5026781;28;20512;-39
2021/10/05 05:07:04;;;;;;;4.27;3.77;;;12.10;99.90;;;;;;5027003;28;20191;-39
2021/10/05 05:09:29;;;;;;;3.83;3.43;;;12.10;99.90;;;;;;5026912;28;20195;-40
2021/10/05 05:11:55;;;;;;;3.80;3.50;;;12.10;99.90;;;;;;5016906;28;20464;-39
2021/10/05 05:14:21;;;;;;;4.40;4.00;;;12.10;99.90;;;;;;5026253;28;20190;-39
2021/10/05 05:16:47;;;;;;;4.63;3.40;;;11.90;99.90;;;;;;5026788;28;20624;-39
2021/10/05 05:19:14;;;;;;;3.77;3.43;;;12.00;99.90;;;;;;5026945;28;20425;-39
2021/10/05 05:21:40;;;;;;;4.40;3.97;;;12.00;99.90;;;;;;5031144;28;20482;-39
2021/10/05 05:24:06;;;;;;;4.33;4.03;;;12.20;99.90;;;;;;5046099;28;20425;-39
2021/10/05 05:26:32;;;;;;;4.50;4.10;;;12.00;99.90;;;;;;5021645;28;20437;-39
2021/10/05 05:28:57;;;;;;;4.97;4.10;;;11.90;99.90;;;;;;5027060;28;20463;-39
2021/10/05 05:31:23;;;;;;;4.70;4.20;;;12.10;99.90;;;;;;5026295;28;20428;-40
2021/10/05 05:33:49;;;;;;;5.37;4.13;;;12.00;99.90;;;;;;5025819;28;20225;-40
2021/10/05 05:36:15;;;;;;;4.97;4.50;;;11.90;99.90;;;;;;5027072;28;20479;-39
2021/10/05 05:38:41;;;;;;;4.90;4.50;;;12.00;99.90;;;;;;5026848;28;20289;-39
2021/10/05 05:41:07;;;;;;;5.87;4.87;;;12.00;99.90;;;;;;5021754;28;20469;-39
2021/10/05 05:43:33;;;;;;;5.13;4.63;;;11.90;99.90;;;;;;5024948;28;20194;-39
2021/10/05 05:45:59;;;;;;;4.70;4.20;;;12.00;99.90;;;;;;5024983;28;20467;-40
2021/10/05 05:48:25;;;;;;;4.40;4.00;;;12.00;99.90;;;;;;5026061;28;20524;-40
2021/10/05 05:50:50;;;;;;;5.77;3.80;;;12.00;99.90;;;;;;5026340;28;20264;-39
2021/10/05 05:53:17;;;;;;;4.13;3.77;;;12.00;99.90;;;;;;5025885;28;20483;-39
2021/10/05 05:55:44;;;;;;;3.80;3.50;;;12.00;99.90;;;;;;5020762;28;20195;-39
2021/10/05 05:58:10;;;;;;;4.00;3.60;;;11.90;99.90;;;;;;5022012;28;21017;-39
2021/10/05 06:00:37;;;;;;;3.90;3.60;;;11.90;99.90;;;;;;5025879;28;20488;-39
2021/10/05 06:03:02;;;;;;;3.57;3.27;;;12.00;99.90;;;;;;5025246;28;20432;-40
2021/10/05 06:05:28;;;;;;;4.93;3.50;;;12.00;99.90;;;;;;5026282;28;20428;-39
2021/10/05 06:07:54;;;;;;;4.10;3.73;;;12.00;99.90;;;;;;5025970;28;20574;-41
2021/10/05 06:10:20;;;;;;;3.80;3.40;;;11.90;99.90;;;;;;5024069;28;20182;-40
2021/10/05 06:12:45;;;;;;;3.40;3.00;;;12.10;99.90;;;;;;5017491;28;20609;-39
2021/10/05 06:15:16;;;;;;;4.20;3.80;;;12.10;99.90;;;;;;5024440;28;20241;-39
2021/10/05 06:17:44;;;;;;;4.57;4.17;;;12.10;99.90;;;;;;5025922;28;20190;-39
2021/10/05 06:20:12;;;;;;;4.40;4.00;;;12.10;99.90;;;;;;5025575;28;21118;-39
2021/10/05 06:22:39;;;;;;;4.73;4.20;;;12.20;99.90;;;;;;5037951;28;20908;-39
2021/10/05 06:25:08;;;;;;;5.30;4.73;;;12.10;99.90;;;;;;5045355;28;20511;-40
2021/10/05 06:27:34;;;;;;;6.20;4.10;;;12.20;99.90;;;;;;5015511;28;20825;-39
2021/10/05 06:30:00;;;;;;;4.10;3.70;;;12.20;99.90;;;;;;5024994;28;20504;-39
2021/10/05 06:32:26;;;;;;;4.20;3.80;;;12.30;99.90;;;;;;5025833;28;20190;-39
2021/10/05 06:34:53;;;;;;;4.60;3.43;;;12.30;99.90;;;;;;5024899;28;20811;-40
2021/10/05 06:37:19;;;;;;;5.00;3.60;;;12.20;99.90;;;;;;5025944;28;20209;-39
2021/10/05 06:39:46;;;;;;;4.83;3.90;;;12.30;99.90;;;;;;5025380;28;20503;-39
2021/10/05 06:42:12;;;;;;;3.93;3.53;;;12.30;99.90;;;;;;5014017;28;20461;-40
2021/10/05 06:44:39;;;;;;;5.87;3.47;;;12.40;99.90;;;;;;5024211;28;20832;-39
2021/10/05 06:47:05;;;;;;;3.87;3.50;;;12.40;99.90;;;;;;5024074;28;20429;-41
2021/10/05 06:49:30;;;;;;;4.40;4.00;;;12.40;99.90;;;;;;5025643;28;20421;-39
2021/10/05 06:51:56;;;;;;;4.23;3.60;;;12.40;99.90;;;;;;5025341;28;20198;-39
2021/10/05 06:54:21;;;;;;;4.40;4.00;;;12.40;99.90;;;;;;5024873;28;20342;-39
2021/10/05 06:56:48;;;;;;;3.93;3.50;;;12.50;99.90;;;;;;5018386;28;20244;-39
2021/10/05 06:59:13;;;;;;;4.70;3.83;;;12.50;99.90;;;;;;5024356;28;20285;-39
2021/10/05 07:01:39;;;;;;;4.00;3.60;;;12.60;99.90;;;;;;5025080;28;20572;-39
2021/10/05 07:04:05;;;;;;;3.80;3.43;;;12.60;99.90;;;;;;5025140;28;20194;-39
2021/10/05 07:06:30;;;;;;;3.50;3.20;;;12.60;99.90;;;;;;5025124;28;20243;-39
2021/10/05 07:08:57;;;;;;;4.43;3.53;;;12.60;99.90;;;;;;5025591;28;20190;-39
2021/10/05 07:11:23;;;;;;;3.50;3.20;;;12.60;99.90;;;;;;5020274;28;20677;-40
2021/10/05 07:13:49;;;;;;;3.17;2.90;;;12.70;99.90;;;;;;5020629;28;20478;-39
2021/10/05 07:16:14;;;;;;;4.50;3.30;;;12.80;99.90;;;;;;5025527;28;20461;-39
2021/10/05 07:18:40;;;;;;;3.20;2.90;;;12.80;99.90;;;;;;5025006;28;20687;-41
2021/10/05 07:21:07;;;;;;;3.23;2.93;;;12.80;99.90;;;;;;5024962;28;20218;-40
2021/10/05 07:23:32;;;;;;;3.80;3.10;;;13.10;99.90;;;;;;5044167;28;20173;-39
2021/10/05 07:25:58;;;;;;;4.10;2.80;;;12.90;99.90;;;;;;5042532;28;20477;-39
2021/10/05 07:28:24;;;;;;;3.10;2.80;;;12.90;99.90;;;;;;5019161;28;20264;-39
2021/10/05 07:30:49;;;;;;;4.00;3.60;;;13.00;99.90;;;;;;5029011;28;20324;-39
2021/10/05 07:33:17;;;;;;;2.90;2.53;;;13.10;99.90;;;;;;5028334;28;20202;-39
2021/10/05 07:35:42;;;;;;;3.53;2.63;;;13.10;99.90;;;;;;5028859;28;20273;-39
2021/10/05 07:38:08;;;;;;;3.10;2.80;;;13.10;99.90;;;;;;5028423;28;20859;-39
2021/10/05 07:40:34;;;;;;;2.97;2.67;;;13.10;99.90;;;;;;5028562;28;20376;-40
2021/10/05 07:43:01;;;;;;;3.23;2.27;;;13.10;99.90;;;;;;5017432;28;20525;-39
2021/10/05 07:45:29;;;;;;;4.20;2.80;;;13.20;99.90;;;;;;5028696;28;20436;-39
2021/10/05 07:47:55;;;;;;;2.67;2.47;;;13.30;99.90;;;;;;5027165;28;20800;-39
2021/10/05 07:50:22;;;;;;;2.30;2.10;;;13.40;99.90;;;;;;5028294;28;20491;-39
2021/10/05 07:52:48;;;;;;;3.20;2.90;;;13.50;99.90;;;;;;5046492;28;20443;-39
2021/10/05 07:55:14;;;;;;;3.30;3.00;;;13.50;99.90;;;;;;5048230;28;20432;-39
2021/10/05 07:57:40;;;;;;;3.77;2.73;;;13.50;99.90;;;;;;5027616;28;20210;-39
2021/10/05 08:00:07;;;;;;;2.20;2.00;;;13.50;99.90;;;;;;5028154;28;20488;-39
2021/10/05 08:02:33;;;;;;;2.77;2.40;;;13.60;99.90;;;;;;5028262;28;20523;-40
2021/10/05 08:04:58;;;;;;;2.30;1.97;;;13.60;99.90;;;;;;5027620;28;20468;-40
2021/10/05 08:07:26;;;;;;;2.80;2.07;;;13.70;99.90;;;;;;5015238;28;20214;-39
2021/10/05 08:09:53;;;;;;;2.43;2.17;;;13.70;99.90;;;;;;5027870;28;20576;-39
2021/10/05 08:12:20;;;;;;;2.23;1.90;;;13.70;99.90;;;;;;5019437;28;20449;-40
2021/10/05 08:14:46;;;;;;;3.40;2.63;;;13.70;99.90;;;;;;5021024;28;20428;-40
2021/10/05 08:17:11;;;;;;;2.40;2.20;;;13.70;99.90;;;;;;5028154;28;20541;-40
2021/10/05 08:19:38;;;;;;;2.30;2.10;;;13.80;99.90;;;;;;5028100;28;20197;-40
2021/10/05 08:22:04;;;;;;;3.00;2.50;;;13.80;99.90;;;;;;5035057;28;20194;-40
2021/10/05 08:24:30;;;;;;;2.73;2.53;;;13.80;99.90;;;;;;5046948;28;20420;-39
2021/10/05 08:26:56;;;;;;;2.50;2.30;;;13.90;99.90;;;;;;5036641;28;20445;-39
2021/10/05 08:29:22;;;;;;;2.47;2.27;;;13.90;99.90;;;;;;5022492;28;20830;-40
2021/10/05 08:31:49;;;;;;;3.23;2.50;;;14.00;99.90;;;;;;5027541;28;20424;-39
2021/10/05 08:34:15;;;;;;;8.83;2.43;;;14.10;99.90;;;;;;5027132;28;20417;-39
2021/10/05 08:36:41;;;;;;;2.27;2.07;;;14.20;99.90;;;;;;5026855;28;20433;-42
2021/10/05 08:39:07;;;;;;;2.63;2.23;;;14.40;99.90;;;;;;5027269;28;20447;-41
2021/10/05 08:41:34;;;;;;;2.60;1.90;;;14.50;99.90;;;;;;5025624;28;20214;-39
2021/10/05 08:44:00;;;;;;;2.17;1.97;;;14.60;99.90;;;;;;5015352;28;20178;-40
2021/10/05 08:46:33;;;;;;;2.30;2.00;;;14.60;99.90;;;;;;5025862;28;20414;-41
2021/10/05 08:48:59;;;;;;;3.67;1.93;;;14.70;99.90;;;;;;5027460;28;20418;-39
2021/10/05 08:51:25;;;;;;;1.90;1.80;;;14.90;99.90;;;;;;5027918;28;20498;-40
2021/10/05 08:53:50;;;;;;;1.83;1.73;;;15.00;99.90;;;;;;5026548;28;20846;-40
2021/10/05 08:56:16;;;;;;;2.10;1.80;;;15.00;99.90;;;;;;5027346;28;20468;-40
2021/10/05 08:58:42;;;;;;;1.60;1.50;;;15.20;99.90;;;;;;5016240;28;20249;-40
2021/10/05 09:01:10;;;;;;;1.50;1.37;;;15.30;99.90;;;;;;5026972;28;20238;-40
2021/10/05 09:03:38;;;;;;;2.10;1.90;;;15.40;99.90;;;;;;5026539;28;20908;-39
2021/10/05 09:06:14;;;;;;;1.93;1.53;;;15.30;99.90;;;;;;5027117;28;20428;-39
2021/10/05 09:08:42;;;;;;;1.53;1.43;;;15.40;99.90;;;;;;5027326;28;20425;-40
2021/10/05 09:11:10;;;;;;;1.80;1.63;;;15.50;99.90;;;;;;5027185;28;20436;-40
2021/10/05 09:13:41;;;;;;;3.10;2.00;;;15.40;99.90;;;;;;5012743;28;20441;-42
2021/10/05 09:16:19;;;;;;;1.53;1.43;;;15.40;99.90;;;;;;5027153;28;20425;-40
2021/10/05 09:18:56;;;;;;;1.80;1.60;;;15.40;99.90;;;;;;5013881;28;20420;-39
2021/10/05 09:21:24;;;;;;;1.77;1.40;;;15.40;99.90;;;;;;5028144;28;20519;-39
2021/10/05 09:24:09;;;;;;;1.80;1.70;;;15.30;99.90;;;;;;5046126;28;20528;-41
2021/10/05 09:26:36;;;;;;;2.30;2.10;;;15.30;99.90;;;;;;5046686;28;20466;-40
2021/10/05 09:29:09;;;;;;;1.60;1.50;;;15.30;99.90;;;;;;5018398;28;20433;-39
2021/10/05 09:31:50;;;;;;;2.40;1.70;;;15.20;99.90;;;;;;5026599;28;20421;-39
2021/10/05 09:34:17;;;;;;;2.80;1.50;;;15.20;99.90;;;;;;5025785;28;21158;-40
2021/10/05 09:36:42;;;;;;;2.10;2.00;;;15.40;99.90;;;;;;5026697;28;20425;-40
2021/10/05 09:39:08;;;;;;;1.60;1.50;;;15.50;99.90;;;;;;5026239;28;20433;-39
2021/10/05 09:41:34;;;;;;;2.00;1.73;;;15.60;99.90;;;;;;5025954;28;20260;-39
2021/10/05 09:44:03;;;;;;;2.47;1.60;;;15.80;99.90;;;;;;5016499;28;20280;-39
2021/10/05 09:46:30;;;;;;;5.53;1.50;;;15.90;99.90;;;;;;5024677;28;20198;-40
2021/10/05 09:49:01;;;;;;;2.33;1.87;;;16.00;99.90;;;;;;5026325;28;20649;-40
2021/10/05 09:51:29;;;;;;;1.60;1.50;;;16.20;99.90;;;;;;5025923;28;20579;-40
2021/10/05 09:53:57;;;;;;;2.07;1.30;;;16.30;99.90;;;;;;5026020;28;20425;-43
2021/10/05 09:56:26;;;;;;;1.33;1.23;;;16.40;99.90;;;;;;5025974;28;20447;-40
2021/10/05 09:58:53;;;;;;;1.20;1.10;;;16.50;99.90;;;;;;5016483;28;20425;-40
2021/10/05 10:01:20;;;;;;;2.83;1.50;;;16.60;99.90;;;;;;5025678;28;20830;-40
2021/10/05 10:03:50;;;;;;;1.47;1.07;;;16.70;99.90;;;;;;5025696;28;20429;-41
2021/10/05 10:06:16;;;;;;;1.40;1.30;;;16.80;99.90;;;;;;5005202;28;20425;-43
2021/10/05 10:08:46;;;;;;;1.47;1.37;;;16.80;99.90;;;;;;5023557;28;20428;-42
2021/10/05 10:11:11;;;;;;;1.40;1.10;;;16.90;99.90;;;;;;5025898;28;20437;-40
2021/10/05 10:13:38;;;;;;;1.20;1.10;;;16.90;99.90;;;;;;5016918;28;20448;-41
2021/10/05 10:16:04;;;;;;;1.97;1.27;;;17.00;99.90;;;;;;5025773;28;20202;-40
2021/10/05 10:18:29;;;;;;;1.10;1.00;;;17.10;99.90;;;;;;5025868;28;20678;-42
2021/10/05 10:21:05;;;;;;;2.03;1.00;;;17.20;99.90;;;;;;5034772;28;20452;-40
2021/10/05 10:23:31;;;;;;;2.70;1.20;;;17.30;99.90;;;;;;5044416;28;20182;-40
2021/10/05 10:26:17;;;;;;;1.57;1.30;;;17.40;99.90;;;;;;5045466;28;20431;-41
2021/10/05 10:28:44;;;;;;;1.30;1.20;;;17.40;99.90;;;;;;5021359;28;20525;-40
2021/10/05 10:31:14;;;;;;;2.60;1.10;;;17.40;99.90;;;;;;5021799;28;20451;-41
2021/10/05 10:33:42;;;;;;;1.80;1.03;;;17.40;99.90;;;;;;5022615;28;20433;-41
2021/10/05 10:36:09;;;;;;;1.30;1.07;;;17.40;99.90;;;;;;5025918;28;20536;-40
2021/10/05 10:38:36;;;;;;;1.33;1.10;;;17.30;99.90;;;;;;5025856;28;20453;-40
2021/10/05 10:41:17;;;;;;;1.73;1.10;;;17.30;99.90;;;;;;5025779;28;20469;-44
2021/10/05 10:43:54;;;;;;;2.40;1.03;;;17.30;99.90;;;;;;5014183;28;20952;-41
2021/10/05 10:46:26;;;;;;;1.43;1.00;;;17.10;99.90;;;;;;5021458;28;20493;-45
2021/10/05 10:48:55;;;;;;;1.73;1.00;;;17.10;99.90;;;;;;5025736;28;20429;-39
2021/10/05 10:51:21;;;;;;;1.77;1.20;;;17.10;99.90;;;;;;5025904;28;20429;-43
2021/10/05 10:53:47;;;;;;;1.80;1.37;;;17.00;99.90;;;;;;5024614;28;20421;-40
2021/10/05 10:56:32;;;;;;;1.50;1.40;;;16.90;99.90;;;;;;5004550;28;20521;-40
2021/10/05 10:59:06;;;;;;;1.17;1.07;;;16.90;99.90;;;;;;5021188;28;20939;-40
2021/10/05 11:01:45;;;;;;;1.63;1.37;;;17.00;99.90;;;;;;5028342;28;20461;-40
2021/10/05 11:04:12;;;;;;;4.23;1.23;;;17.10;99.90;;;;;;5016291;28;20685;-40
2021/10/05 11:06:39;;;;;;;1.97;1.07;;;17.10;99.90;;;;;;5028855;28;20425;-42
2021/10/05 11:09:06;;;;;;;2.50;0.80;;;17.20;99.90;;;;;;5028355;28;20428;-40
2021/10/05 11:11:43;;;;;;;2.73;1.20;;;17.10;99.90;;;;;;5029195;28;20433;-40
2021/10/05 11:14:12;;;;;;;3.10;1.30;;;17.20;99.90;;;;;;5017680;28;20661;-40
2021/10/05 11:16:39;;;;;;;1.50;1.10;;;17.20;99.90;;;;;;5024093;28;20508;-40
2021/10/05 11:19:13;;;;;;;4.00;1.23;;;17.30;99.90;;;;;;5028838;28;20433;-39
2021/10/05 11:21:41;;;;;;;1.73;1.00;;;17.40;99.90;;;;;;5032885;28;20740;-40
2021/10/05 11:24:08;;;;;;;1.40;1.07;;;17.50;99.90;;;;;;5048581;28;20813;-40
2021/10/05 11:26:50;;;;;;;1.43;1.03;;;17.50;99.90;;;;;;5048629;28;20519;-40
2021/10/05 11:29:24;;;;;;;1.90;1.20;;;17.60;99.90;;;;;;5023791;28;20437;-40
2021/10/05 11:31:54;;;;;;;1.97;1.10;;;17.70;99.90;;;;;;5028470;28;20437;-40
2021/10/05 11:34:20;;;;;;;1.63;1.23;;;17.70;99.90;;;;;;5028512;28;20490;-41
2021/10/05 11:36:47;;;;;;;1.80;1.17;;;17.80;99.90;;;;;;5028878;28;20850;-40
2021/10/05 11:39:27;;;;;;;3.30;1.30;;;17.80;99.90;;;;;;5029139;28;20248;-41
2021/10/05 11:41:59;;;;;;;2.30;1.20;;;17.90;99.90;;;;;;5028959;28;20504;-40
2021/10/05 11:44:28;;;;;;;2.67;0.93;;;18.00;99.90;;;;;;5018886;28;20532;-40
2021/10/05 11:47:06;;;;;;;1.20;1.00;;;18.00;99.90;;;;;;5026876;28;20462;-40
2021/10/05 11:49:38;;;;;;;1.40;0.70;;;18.00;99.90;;;;;;5028656;28;20421;-40
2021/10/05 11:52:08;;;;;;;2.63;1.10;;;17.90;99.90;;;;;;5028507;28;20424;-40
2021/10/05 11:54:35;;;;;;;2.00;1.07;;;18.00;99.90;;;;;;5026616;28;20511;-40
2021/10/05 11:57:10;;;;;;;1.40;1.20;;;18.00;99.90;;;;;;5027995;28;20445;-40
2021/10/05 11:59:36;;;;;;;1.53;0.87;;;18.10;99.90;;;;;;5018139;28;20486;-41
2021/10/05 12:02:09;;;;;;;2.30;1.10;;;18.10;99.90;;;;;;5027788;28;20540;-41
2021/10/05 12:04:36;;;;;;;3.00;1.00;;;18.10;99.90;;;;;;5027796;28;20449;-39
2021/10/05 12:07:05;;;;;;;2.10;1.17;;;18.20;99.90;;;;;;5028150;28;20425;-40
2021/10/05 12:09:32;;;;;;;1.43;1.00;;;18.30;99.90;;;;;;5028152;28;20424;-40
2021/10/05 12:12:08;;;;;;;1.27;0.93;;;18.40;99.90;;;;;;5026896;28;20436;-41
2021/10/05 12:14:52;;;;;;;1.93;1.17;;;18.50;99.90;;;;;;5018668;28;20436;-40
2021/10/05 12:17:19;;;;;;;1.10;0.90;;;18.60;99.90;;;;;;5025301;28;20975;-40
2021/10/05 12:19:48;;;;;;;3.30;1.07;;;18.70;99.90;;;;;;5027791;28;20452;-43
2021/10/05 12:22:18;;;;;;;1.20;1.10;;;18.80;99.90;;;;;;5031451;28;20425;-45
2021/10/05 12:24:44;;;;;;;2.00;1.00;;;18.80;99.90;;;;;;5043459;28;20428;-43
2021/10/05 12:27:14;;;;;;;1.57;0.90;;;18.90;99.90;;;;;;5048133;28;20933;-40
2021/10/05 12:30:01;;;;;;;1.93;0.90;;;18.80;99.90;;;;;;5025632;28;20576;-41
2021/10/05 12:32:46;;;;;;;1.23;0.80;;;18.50;99.90;;;;;;5025846;28;20425;-40
2021/10/05 12:35:24;;;;;;;4.40;1.10;;;18.30;99.90;;;;;;5016967;28;20699;-40
2021/10/05 12:38:16;;;;;;;1.53;1.10;;;18.10;99.90;;;;;;5027564;28;20428;-40
2021/10/05 12:40:52;;;;;;;1.00;0.90;;;18.00;99.90;;;;;;5027146;28;20466;-40
2021/10/05 12:43:20;;;;;;;2.17;1.20;;;17.90;99.90;;;;;;5026449;28;20460;-40
2021/10/05 12:46:11;;;;;;;2.17;1.20;;;17.80;99.90;;;;;;5019678;28;20417;-40
2021/10/05 12:48:39;;;;;;;2.00;0.97;;;17.70;99.90;;;;;;5026605;28;20425;-41
2021/10/05 12:51:10;;;;;;;1.87;1.10;;;17.60;99.90;;;;;;5027117;28;20908;-40